createdAt,value
2018-08-28T00:01:11.740Z,24.50
2018-08-28T00:03:40.056Z,24.40
2018-08-28T00:06:08.432Z,24.40
2018-08-28T00:08:36.746Z,24.40
2018-08-28T00:11:05.602Z,24.40
2018-08-28T00:13:33.963Z,24.40
2018-08-28T00:16:02.536Z,24.40
2018-08-28T00:18:30.848Z,24.40
2018-08-28T00:20:59.216Z,24.40
2018-08-28T00:23:27.581Z,24.40
2018-08-28T00:25:55.973Z,24.40
2018-08-28T00:28:24.253Z,24.40
2018-08-28T00:30:52.592Z,24.40
2018-08-28T00:33:21.055Z,24.40
2018-08-28T00:35:49.361Z,24.40
2018-08-28T00:38:17.720Z,24.40
2018-08-28T00:40:46.038Z,24.40
2018-08-28T00:43:14.373Z,24.30
2018-08-28T00:45:42.689Z,24.30
2018-08-28T00:48:11.031Z,24.40
2018-08-28T00:50:39.393Z,24.40
2018-08-28T00:53:07.837Z,24.30
2018-08-28T00:55:36.129Z,24.30
2018-08-28T00:58:04.520Z,24.30
2018-08-28T01:00:32.835Z,24.30
2018-08-28T01:03:01.262Z,24.30
2018-08-28T01:05:29.570Z,24.30
2018-08-28T01:07:57.917Z,24.30
2018-08-28T01:10:26.180Z,24.30
2018-08-28T01:12:54.468Z,24.20
2018-08-28T01:15:22.740Z,24.20
2018-08-28T01:17:51.038Z,24.10
2018-08-28T01:20:19.265Z,24.20
2018-08-28T01:22:47.489Z,24.10
2018-08-28T01:25:15.802Z,24.20
2018-08-28T01:27:44.105Z,24.10
2018-08-28T01:30:12.387Z,24.10
2018-08-28T01:32:41.710Z,24.10
2018-08-28T01:35:10.006Z,24.00
2018-08-28T01:37:38.300Z,24.00
2018-08-28T01:40:06.614Z,24.00
2018-08-28T01:42:34.913Z,23.90
2018-08-28T01:45:03.261Z,24.00
2018-08-28T01:47:31.597Z,23.90
2018-08-28T01:49:59.934Z,23.90
2018-08-28T01:52:28.198Z,23.90
2018-08-28T01:54:56.571Z,23.90
2018-08-28T01:57:24.825Z,23.90
2018-08-28T01:59:53.133Z,23.90
2018-08-28T02:02:21.393Z,23.80
2018-08-28T02:04:49.707Z,23.90
2018-08-28T02:07:17.993Z,23.90
2018-08-28T02:09:46.322Z,23.80
2018-08-28T02:12:14.582Z,23.70
2018-08-28T02:14:42.912Z,23.80
2018-08-28T02:17:11.187Z,23.80
2018-08-28T02:19:39.462Z,23.80
2018-08-28T02:22:07.668Z,23.80
2018-08-28T02:24:35.979Z,23.70
2018-08-28T02:27:04.217Z,23.80
2018-08-28T02:29:32.500Z,23.70
2018-08-28T02:32:00.796Z,23.70
2018-08-28T02:34:29.273Z,23.80
2018-08-28T02:36:57.546Z,23.70
2018-08-28T02:39:25.934Z,23.70
2018-08-28T02:41:54.133Z,23.70
2018-08-28T02:44:22.486Z,23.70
2018-08-28T02:46:50.802Z,23.70
2018-08-28T02:49:19.138Z,23.60
2018-08-28T02:51:47.432Z,23.60
2018-08-28T02:54:15.809Z,23.60
2018-08-28T02:56:44.116Z,23.60
2018-08-28T02:59:12.486Z,23.60
2018-08-28T03:01:40.812Z,23.60
2018-08-28T03:04:09.121Z,23.60
2018-08-28T03:06:37.456Z,23.60
2018-08-28T03:09:06.485Z,23.50
2018-08-28T03:11:34.900Z,23.50
2018-08-28T03:14:03.150Z,23.60
2018-08-28T03:16:31.533Z,23.50
2018-08-28T03:18:59.792Z,23.50
2018-08-28T03:21:28.222Z,23.50
2018-08-28T03:23:56.597Z,23.40
2018-08-28T03:26:24.932Z,23.40
2018-08-28T03:28:53.241Z,23.40
2018-08-28T03:31:21.615Z,23.40
2018-08-28T03:33:49.914Z,23.40
2018-08-28T03:36:18.272Z,23.40
2018-08-28T03:38:46.545Z,23.40
2018-08-28T03:41:14.883Z,23.40
2018-08-28T03:43:43.279Z,23.40
2018-08-28T03:46:11.581Z,23.40
2018-08-28T03:48:39.896Z,23.40
2018-08-28T03:51:08.626Z,23.40
2018-08-28T03:53:36.891Z,23.40
2018-08-28T03:56:05.593Z,23.40
2018-08-28T03:58:33.902Z,23.30
2018-08-28T04:01:02.470Z,23.40
2018-08-28T04:03:30.722Z,23.30
2018-08-28T04:05:59.034Z,23.30
2018-08-28T04:08:27.359Z,23.30
2018-08-28T04:10:55.665Z,23.30
2018-08-28T04:13:23.975Z,23.30
2018-08-28T04:15:52.225Z,23.30
2018-08-28T04:18:20.521Z,23.30
2018-08-28T04:20:48.866Z,23.30
2018-08-28T04:23:17.224Z,23.30
2018-08-28T04:25:45.625Z,23.20
2018-08-28T04:28:13.974Z,23.20
2018-08-28T04:30:42.371Z,23.20
2018-08-28T04:33:10.650Z,23.20
2018-08-28T04:35:39.057Z,23.30
2018-08-28T04:38:07.405Z,23.30
2018-08-28T04:40:35.671Z,23.30
2018-08-28T04:43:04.027Z,23.30
2018-08-28T04:45:32.339Z,23.20
2018-08-28T04:48:00.614Z,23.30
2018-08-28T04:50:28.913Z,23.30
2018-08-28T04:52:57.151Z,23.30
2018-08-28T04:55:25.365Z,23.30
2018-08-28T04:57:53.621Z,23.20
2018-08-28T05:00:22.000Z,23.30
2018-08-28T05:02:50.345Z,23.30
2018-08-28T05:05:18.604Z,23.30
2018-08-28T05:07:46.936Z,23.30
2018-08-28T05:10:15.188Z,23.30
2018-08-28T05:12:43.438Z,23.30
2018-08-28T05:15:18.144Z,23.30
2018-08-28T05:17:46.448Z,23.30
2018-08-28T05:20:14.684Z,23.30
2018-08-28T05:22:43.031Z,23.40
2018-08-28T05:25:11.325Z,23.30
2018-08-28T05:27:39.543Z,23.40
2018-08-28T05:30:07.821Z,23.40
2018-08-28T05:32:36.119Z,23.40
2018-08-28T05:35:04.489Z,23.40
2018-08-28T05:37:32.811Z,23.40
2018-08-28T05:40:01.123Z,23.40
2018-08-28T05:42:29.414Z,23.40
2018-08-28T05:44:57.748Z,23.50
2018-08-28T05:47:26.038Z,23.50
2018-08-28T05:49:54.357Z,23.40
2018-08-28T05:52:22.673Z,23.50
2018-08-28T05:54:51.009Z,23.50
2018-08-28T05:57:19.325Z,23.50
2018-08-28T05:59:47.628Z,23.50
2018-08-28T06:02:16.014Z,23.50
2018-08-28T06:04:44.394Z,23.50
2018-08-28T06:07:12.745Z,23.60
2018-08-28T06:09:40.992Z,23.60
2018-08-28T06:12:09.325Z,23.60
2018-08-28T06:14:37.647Z,23.70
2018-08-28T06:17:06.060Z,23.80
2018-08-28T06:19:34.296Z,23.80
2018-08-28T06:22:02.613Z,23.70
2018-08-28T06:24:30.942Z,23.80
2018-08-28T06:26:59.298Z,23.80
2018-08-28T06:29:27.593Z,23.90
2018-08-28T06:31:55.937Z,23.90
2018-08-28T06:34:24.273Z,23.90
2018-08-28T06:36:52.619Z,23.90
2018-08-28T06:39:20.907Z,23.90
2018-08-28T06:41:49.258Z,24.00
2018-08-28T06:44:17.574Z,24.00
2018-08-28T06:46:45.850Z,24.10
2018-08-28T06:49:14.230Z,24.00
2018-08-28T06:51:42.604Z,24.10
2018-08-28T06:54:10.884Z,24.20
2018-08-28T06:56:39.207Z,24.10
2018-08-28T06:59:07.490Z,24.20
2018-08-28T07:01:35.768Z,24.10
2018-08-28T07:04:04.175Z,24.10
2018-08-28T07:06:32.665Z,24.10
2018-08-28T07:09:00.988Z,24.20
2018-08-28T07:11:29.190Z,24.20
2018-08-28T07:13:57.417Z,24.10
2018-08-28T07:16:25.739Z,24.10
2018-08-28T07:18:54.072Z,24.20
2018-08-28T07:21:22.313Z,24.20
2018-08-28T07:23:50.656Z,24.30
2018-08-28T07:26:19.057Z,24.40
2018-08-28T07:28:47.414Z,24.40
2018-08-28T07:31:15.712Z,24.40
2018-08-28T07:33:43.973Z,24.50
2018-08-28T07:36:12.294Z,24.50
2018-08-28T07:38:40.631Z,24.50
2018-08-28T07:41:08.861Z,24.40
2018-08-28T07:43:37.201Z,24.30
2018-08-28T07:46:05.488Z,24.40
2018-08-28T07:48:33.808Z,24.50
2018-08-28T07:51:02.153Z,24.50
2018-08-28T07:53:30.511Z,24.60
2018-08-28T07:55:58.865Z,24.70
2018-08-28T07:58:27.133Z,24.90
2018-08-28T08:00:55.544Z,25.00
2018-08-28T08:03:24.771Z,24.80
2018-08-28T08:05:54.722Z,24.70
2018-08-28T08:08:23.081Z,24.70
2018-08-28T08:10:51.753Z,24.80
2018-08-28T08:13:20.110Z,24.80
2018-08-28T08:15:48.648Z,24.90
2018-08-28T08:18:16.882Z,25.00
2018-08-28T08:20:45.128Z,25.20
2018-08-28T08:23:13.424Z,25.40
2018-08-28T08:25:42.429Z,25.60
2018-08-28T08:28:11.121Z,25.80
2018-08-28T08:30:39.333Z,25.90
2018-08-28T08:33:07.853Z,26.10
2018-08-28T08:35:36.214Z,26.20
2018-08-28T08:38:04.525Z,26.20
2018-08-28T08:40:33.538Z,26.20
2018-08-28T08:43:01.812Z,26.30
2018-08-28T08:45:30.057Z,26.40
2018-08-28T08:47:58.262Z,26.50
2018-08-28T08:50:26.572Z,26.70
2018-08-28T08:52:54.850Z,27.00
2018-08-28T08:55:23.145Z,27.10
2018-08-28T08:57:51.416Z,27.10
2018-08-28T09:00:19.750Z,27.00
2018-08-28T09:02:48.068Z,26.80
2018-08-28T09:05:16.398Z,26.80
2018-08-28T09:07:44.723Z,26.70
2018-08-28T09:10:13.073Z,26.70
2018-08-28T09:12:41.344Z,26.80
2018-08-28T09:15:09.613Z,26.80
2018-08-28T09:17:37.932Z,26.90
2018-08-28T09:20:06.268Z,27.10
2018-08-28T09:22:34.688Z,27.20
2018-08-28T09:25:03.029Z,27.40
2018-08-28T09:27:31.314Z,27.40
2018-08-28T09:29:59.665Z,27.40
2018-08-28T09:32:28.236Z,27.40
2018-08-28T09:34:56.411Z,27.30
2018-08-28T09:37:24.741Z,27.30
2018-08-28T09:39:53.057Z,27.30
2018-08-28T09:42:21.380Z,27.20
2018-08-28T09:44:49.672Z,27.20
2018-08-28T09:47:17.985Z,27.20
2018-08-28T09:49:46.349Z,27.50
2018-08-28T09:52:14.705Z,27.60
2018-08-28T09:54:43.016Z,27.80
2018-08-28T09:57:11.383Z,28.00
2018-08-28T09:59:39.600Z,28.10
2018-08-28T10:02:07.925Z,28.10
2018-08-28T10:04:36.176Z,28.20
2018-08-28T10:07:04.393Z,28.30
2018-08-28T10:09:32.741Z,28.30
2018-08-28T10:12:00.965Z,28.20
2018-08-28T10:14:29.269Z,28.30
2018-08-28T10:16:57.534Z,28.30
2018-08-28T10:19:25.773Z,28.30
2018-08-28T10:21:54.096Z,28.40
2018-08-28T10:24:22.473Z,28.30
2018-08-28T10:26:50.808Z,28.40
2018-08-28T10:29:19.183Z,28.40
2018-08-28T10:31:47.555Z,28.50
2018-08-28T10:34:15.870Z,28.50
2018-08-28T10:36:44.081Z,28.60
2018-08-28T10:39:12.385Z,28.60
2018-08-28T10:41:40.713Z,28.70
2018-08-28T10:44:09.052Z,29.00
2018-08-28T10:46:37.397Z,29.20
2018-08-28T10:49:05.656Z,29.40
2018-08-28T10:51:33.985Z,29.40
2018-08-28T10:54:02.326Z,29.50
2018-08-28T10:56:30.656Z,29.50
2018-08-28T10:58:58.988Z,29.50
2018-08-28T11:01:27.383Z,29.50
2018-08-28T11:03:55.667Z,29.50
2018-08-28T11:06:23.993Z,29.40
2018-08-28T11:08:52.376Z,29.50
2018-08-28T11:11:20.605Z,29.40
2018-08-28T11:13:48.881Z,29.40
2018-08-28T11:16:18.079Z,29.30
2018-08-28T11:18:46.345Z,29.20
2018-08-28T11:21:14.678Z,29.30
2018-08-28T11:23:42.987Z,29.60
2018-08-28T11:26:11.374Z,29.50
2018-08-28T11:28:39.718Z,29.30
2018-08-28T11:31:08.013Z,29.20
2018-08-28T11:33:36.305Z,29.10
2018-08-28T11:36:04.736Z,29.00
2018-08-28T11:38:33.111Z,28.90
2018-08-28T11:41:01.303Z,28.80
2018-08-28T11:43:29.638Z,28.70
2018-08-28T11:45:58.006Z,28.60
2018-08-28T11:48:26.309Z,28.50
2018-08-28T11:50:54.681Z,28.40
2018-08-28T11:53:23.141Z,28.30
2018-08-28T11:55:51.300Z,28.20
2018-08-28T11:58:19.648Z,28.20
2018-08-28T12:00:47.886Z,28.20
2018-08-28T12:03:16.182Z,28.30
2018-08-28T12:05:44.525Z,28.30
2018-08-28T12:08:12.817Z,28.40
2018-08-28T12:10:47.553Z,28.50
2018-08-28T12:13:15.939Z,28.70
2018-08-28T12:15:44.278Z,29.00
2018-08-28T12:18:12.557Z,29.50
2018-08-28T12:20:40.927Z,30.40
2018-08-28T12:23:09.241Z,31.30
2018-08-28T12:25:37.494Z,32.60
2018-08-28T12:28:05.881Z,33.10
2018-08-28T12:30:34.181Z,33.10
2018-08-28T12:33:02.476Z,32.90
2018-08-28T12:35:30.783Z,32.80
2018-08-28T12:37:59.044Z,34.40
2018-08-28T12:40:27.313Z,36.70
2018-08-28T12:42:55.562Z,36.60
2018-08-28T12:45:23.775Z,35.30
2018-08-28T12:47:52.068Z,34.10
2018-08-28T12:50:20.364Z,33.20
2018-08-28T12:52:48.666Z,32.40
2018-08-28T12:55:16.993Z,31.90
2018-08-28T12:57:45.358Z,31.30
2018-08-28T13:00:13.607Z,31.00
2018-08-28T13:02:41.873Z,30.80
2018-08-28T13:05:10.197Z,30.80
2018-08-28T13:07:38.522Z,30.90
2018-08-28T13:10:06.804Z,31.10
2018-08-28T13:12:35.138Z,31.30
2018-08-28T13:15:03.442Z,32.30
2018-08-28T13:17:31.762Z,32.00
2018-08-28T13:20:00.017Z,31.60
2018-08-28T13:22:28.290Z,31.20
2018-08-28T13:24:56.558Z,30.90
2018-08-28T13:27:24.845Z,30.60
2018-08-28T13:29:53.163Z,30.30
2018-08-28T13:32:21.465Z,30.10
2018-08-28T13:34:49.800Z,29.90
2018-08-28T13:37:18.090Z,29.70
2018-08-28T13:39:46.401Z,29.60
2018-08-28T13:42:14.722Z,29.40
2018-08-28T13:44:43.045Z,29.40
2018-08-28T13:47:11.502Z,29.30
2018-08-28T13:49:40.129Z,29.30
2018-08-28T13:52:08.445Z,29.30
2018-08-28T13:54:36.736Z,29.30
2018-08-28T13:57:05.078Z,29.30
2018-08-28T13:59:33.390Z,29.30
2018-08-28T14:02:02.078Z,29.30
2018-08-28T14:04:30.312Z,29.30
2018-08-28T14:06:58.700Z,29.40
2018-08-28T14:09:27.000Z,29.40
2018-08-28T14:11:55.189Z,29.40
2018-08-28T14:14:23.483Z,29.40
2018-08-28T14:16:51.793Z,29.30
2018-08-28T14:19:20.045Z,29.30
2018-08-28T14:21:48.317Z,29.40
2018-08-28T14:24:16.633Z,29.30
2018-08-28T14:26:44.978Z,29.40
2018-08-28T14:29:13.344Z,29.40
2018-08-28T14:31:41.589Z,29.30
2018-08-28T14:34:09.869Z,29.20
2018-08-28T14:36:38.182Z,29.20
2018-08-28T14:39:07.039Z,29.20
2018-08-28T14:41:35.369Z,29.10
2018-08-28T14:44:03.830Z,29.00
2018-08-28T14:46:32.157Z,29.10
2018-08-28T14:49:00.466Z,29.00
2018-08-28T14:51:28.709Z,29.00
2018-08-28T14:53:57.127Z,29.10
2018-08-28T14:56:25.449Z,29.00
2018-08-28T14:58:53.748Z,29.00
2018-08-28T15:01:22.087Z,28.90
2018-08-28T15:03:50.393Z,28.90
2018-08-28T15:06:18.662Z,28.80
2018-08-28T15:08:46.980Z,28.80
2018-08-28T15:11:15.256Z,28.70
2018-08-28T15:13:43.564Z,28.70
2018-08-28T15:16:11.860Z,28.60
2018-08-28T15:18:40.258Z,28.60
2018-08-28T15:21:08.597Z,28.60
2018-08-28T15:23:36.993Z,28.50
2018-08-28T15:26:05.338Z,28.40
2018-08-28T15:28:33.666Z,28.40
2018-08-28T15:31:02.042Z,28.40
2018-08-28T15:33:30.306Z,28.30
2018-08-28T15:35:58.620Z,28.20
2018-08-28T15:38:26.963Z,28.20
2018-08-28T15:40:55.181Z,28.10
2018-08-28T15:43:23.473Z,28.00
2018-08-28T15:45:51.714Z,28.00
2018-08-28T15:48:20.037Z,27.90
2018-08-28T15:50:48.304Z,27.90
2018-08-28T15:53:16.678Z,27.80
2018-08-28T15:55:44.932Z,27.80
2018-08-28T15:58:13.275Z,27.70
2018-08-28T16:00:41.589Z,27.70
2018-08-28T16:03:09.869Z,27.70
2018-08-28T16:05:38.201Z,27.70
2018-08-28T16:08:06.537Z,27.70
2018-08-28T16:10:34.930Z,27.70
2018-08-28T16:13:03.302Z,27.60
2018-08-28T16:15:31.608Z,27.60
2018-08-28T16:17:59.931Z,27.60
2018-08-28T16:20:28.185Z,27.60
2018-08-28T16:22:59.604Z,27.60
2018-08-28T16:25:27.938Z,27.60
2018-08-28T16:27:56.283Z,27.60
2018-08-28T16:30:24.524Z,27.50
2018-08-28T16:32:52.813Z,27.50
2018-08-28T16:35:21.131Z,27.50
2018-08-28T16:37:49.466Z,27.40
2018-08-28T16:40:17.793Z,27.40
2018-08-28T16:42:46.058Z,27.40
2018-08-28T16:45:14.324Z,27.40
2018-08-28T16:47:42.601Z,27.40
2018-08-28T16:50:10.872Z,27.40
2018-08-28T16:52:39.156Z,27.50
2018-08-28T16:55:07.510Z,27.40
2018-08-28T16:57:35.894Z,27.40
2018-08-28T17:00:04.303Z,27.40
2018-08-28T17:02:32.650Z,27.40
2018-08-28T17:05:01.026Z,27.40
2018-08-28T17:07:29.354Z,27.40
2018-08-28T17:09:57.685Z,27.30
2018-08-28T17:12:26.160Z,27.20
2018-08-28T17:14:54.300Z,27.20
2018-08-28T17:17:22.629Z,27.10
2018-08-28T17:19:50.884Z,27.20
2018-08-28T17:22:20.181Z,27.10
2018-08-28T17:24:48.536Z,27.10
2018-08-28T17:27:16.822Z,27.10
2018-08-28T17:29:45.140Z,27.00
2018-08-28T17:32:13.406Z,27.00
2018-08-28T17:34:41.710Z,27.00
2018-08-28T17:37:10.216Z,27.00
2018-08-28T17:39:38.536Z,26.90
2018-08-28T17:42:07.018Z,26.90
2018-08-28T17:44:35.454Z,26.80
2018-08-28T17:47:03.781Z,26.70
2018-08-28T17:49:32.329Z,26.70
2018-08-28T17:52:01.915Z,26.80
2018-08-28T17:54:32.273Z,26.70
2018-08-28T17:57:00.709Z,26.70
2018-08-28T17:59:28.966Z,26.70
2018-08-28T18:01:58.348Z,26.70
2018-08-28T18:04:26.760Z,26.70
2018-08-28T18:06:55.070Z,26.70
2018-08-28T18:09:23.458Z,26.70
2018-08-28T18:11:51.762Z,26.70
2018-08-28T18:14:20.102Z,26.70
2018-08-28T18:16:48.505Z,26.70
2018-08-28T18:19:16.882Z,26.70
2018-08-28T18:21:45.225Z,26.70
2018-08-28T18:24:13.578Z,26.60
2018-08-28T18:26:41.910Z,26.60
2018-08-28T18:29:10.316Z,26.70
2018-08-28T18:31:38.677Z,26.60
2018-08-28T18:34:07.029Z,26.60
2018-08-28T18:36:35.362Z,26.60
2018-08-28T18:39:05.104Z,26.50
2018-08-28T18:41:33.683Z,26.60
2018-08-28T18:44:01.869Z,26.60
2018-08-28T18:46:31.061Z,26.50
2018-08-28T18:48:59.442Z,26.50
2018-08-28T18:51:29.094Z,26.60
2018-08-28T18:53:57.660Z,26.50
2018-08-28T18:56:32.930Z,26.50
2018-08-28T18:59:02.413Z,26.50
2018-08-28T19:01:31.034Z,26.50
2018-08-28T19:03:59.417Z,26.40
2018-08-28T19:06:27.765Z,26.40
2018-08-28T19:08:56.117Z,26.40
2018-08-28T19:11:24.418Z,26.40
2018-08-28T19:13:52.840Z,26.40
2018-08-28T19:16:21.159Z,26.40
2018-08-28T19:18:49.465Z,26.40
2018-08-28T19:21:17.876Z,26.40
2018-08-28T19:23:46.257Z,26.30
2018-08-28T19:26:14.622Z,26.20
2018-08-28T19:28:42.941Z,26.20
2018-08-28T19:31:11.372Z,26.30
2018-08-28T19:33:39.849Z,26.30
2018-08-28T19:36:08.233Z,26.20
2018-08-28T19:38:36.555Z,26.10
2018-08-28T19:41:04.913Z,26.20
2018-08-28T19:43:33.255Z,26.10
2018-08-28T19:46:01.585Z,26.10
2018-08-28T19:48:29.857Z,26.10
2018-08-28T19:50:58.142Z,26.10
2018-08-28T19:53:26.550Z,26.10
2018-08-28T19:55:54.845Z,26.10
2018-08-28T19:58:23.308Z,26.00
2018-08-28T20:00:51.557Z,26.00
2018-08-28T20:03:19.910Z,26.10
2018-08-28T20:05:48.261Z,26.00
2018-08-28T20:08:16.636Z,26.00
2018-08-28T20:10:45.053Z,26.00
2018-08-28T20:13:13.420Z,25.90
2018-08-28T20:15:41.786Z,25.90
2018-08-28T20:18:10.175Z,25.90
2018-08-28T20:20:38.590Z,25.90
2018-08-28T20:23:06.934Z,25.90
2018-08-28T20:25:35.330Z,25.90
2018-08-28T20:28:03.741Z,25.80
2018-08-28T20:30:32.109Z,25.80
2018-08-28T20:33:00.436Z,25.80
2018-08-28T20:35:28.734Z,25.80
2018-08-28T20:37:57.052Z,25.80
2018-08-28T20:40:25.380Z,25.80
2018-08-28T20:42:53.721Z,25.90
2018-08-28T20:45:22.073Z,25.80
2018-08-28T20:47:50.409Z,25.80
2018-08-28T20:50:18.762Z,25.70
2018-08-28T20:52:47.891Z,25.70
2018-08-28T20:55:16.261Z,25.70
2018-08-28T20:57:44.621Z,25.80
2018-08-28T21:00:12.960Z,25.70
2018-08-28T21:02:41.318Z,25.70
2018-08-28T21:05:09.637Z,25.70
2018-08-28T21:07:38.008Z,25.70
2018-08-28T21:10:06.822Z,25.60
2018-08-28T21:12:35.129Z,25.60
2018-08-28T21:15:03.526Z,25.60
2018-08-28T21:17:31.888Z,25.60
2018-08-28T21:20:00.217Z,25.60
2018-08-28T21:22:28.617Z,25.60
2018-08-28T21:24:56.918Z,25.60
2018-08-28T21:27:25.270Z,25.60
2018-08-28T21:29:53.576Z,25.60
2018-08-28T21:32:21.960Z,25.50
2018-08-28T21:34:50.294Z,25.50
2018-08-28T21:37:18.569Z,25.40
2018-08-28T21:39:46.947Z,25.50
2018-08-28T21:42:15.245Z,25.50
2018-08-28T21:44:43.527Z,25.60
2018-08-28T21:47:11.864Z,25.50
2018-08-28T21:49:40.108Z,25.50
2018-08-28T21:52:08.441Z,25.50
2018-08-28T21:54:36.781Z,25.40
2018-08-28T21:57:05.157Z,25.40
2018-08-28T21:59:33.544Z,25.40
2018-08-28T22:02:01.873Z,25.40
2018-08-28T22:04:30.211Z,25.40
2018-08-28T22:07:03.777Z,25.40
2018-08-28T22:09:32.165Z,25.40
2018-08-28T22:12:00.553Z,25.30
2018-08-28T22:14:28.866Z,25.30
2018-08-28T22:16:57.310Z,25.30
2018-08-28T22:19:25.667Z,25.30
2018-08-28T22:21:54.149Z,25.30
2018-08-28T22:24:22.468Z,25.30
2018-08-28T22:26:50.780Z,25.30
2018-08-28T22:29:19.094Z,25.30
2018-08-28T22:31:47.412Z,25.20
2018-08-28T22:34:15.798Z,25.20
2018-08-28T22:36:44.112Z,25.20
2018-08-28T22:39:12.457Z,25.20
2018-08-28T22:41:40.779Z,25.20
2018-08-28T22:44:09.053Z,25.10
2018-08-28T22:46:37.376Z,25.10
2018-08-28T22:49:05.705Z,25.10
2018-08-28T22:51:33.992Z,25.10
2018-08-28T22:54:02.332Z,25.20
2018-08-28T22:56:30.667Z,25.10
2018-08-28T22:58:58.973Z,25.10
2018-08-28T23:01:27.388Z,25.10
2018-08-28T23:03:55.722Z,25.00
2018-08-28T23:06:24.026Z,25.10
2018-08-28T23:08:52.283Z,25.00
2018-08-28T23:11:20.526Z,25.00
2018-08-28T23:13:48.757Z,25.10
2018-08-28T23:16:17.097Z,25.10
2018-08-28T23:18:45.453Z,25.00
2018-08-28T23:21:13.778Z,25.10
2018-08-28T23:23:42.062Z,25.00
2018-08-28T23:26:10.329Z,25.00
2018-08-28T23:28:38.584Z,25.00
2018-08-28T23:31:06.893Z,25.00
2018-08-28T23:33:35.163Z,24.90
2018-08-28T23:36:03.471Z,24.90
2018-08-28T23:38:31.700Z,24.90
2018-08-28T23:40:59.987Z,24.90
2018-08-28T23:43:28.266Z,24.90
2018-08-28T23:45:56.689Z,24.80
2018-08-28T23:48:24.988Z,24.80
2018-08-28T23:50:53.306Z,24.80
2018-08-28T23:53:21.585Z,24.80
2018-08-28T23:55:49.929Z,24.70
2018-08-28T23:58:18.321Z,24.70
